createdAt,value
2022-12-26T00:04:50.632Z,8.87
2022-12-26T00:09:48.713Z,9.20
2022-12-26T00:14:50.326Z,9.59
2022-12-26T00:19:52.020Z,10.16
2022-12-26T00:24:53.645Z,10.10
2022-12-26T00:29:55.287Z,10.24
2022-12-26T00:34:56.918Z,10.07
2022-12-26T00:39:58.609Z,9.93
2022-12-26T00:45:00.709Z,9.86
2022-12-26T00:50:13.483Z,9.83
2022-12-26T00:55:16.890Z,9.64
2022-12-26T01:00:18.560Z,9.55
2022-12-26T01:05:20.237Z,9.43
2022-12-26T01:10:21.886Z,9.13
2022-12-26T01:15:23.542Z,8.94
2022-12-26T01:20:25.526Z,8.76
2022-12-26T01:25:27.194Z,8.66
2022-12-26T01:30:28.885Z,8.64
2022-12-26T01:35:30.526Z,8.74
2022-12-26T01:40:32.275Z,8.47
2022-12-26T01:45:33.961Z,8.61
2022-12-26T01:51:01.708Z,8.84
2022-12-26T01:56:10.610Z,9.02
2022-12-26T02:01:12.898Z,9.41
2022-12-26T02:06:15.852Z,10.17
2022-12-26T02:11:28.976Z,10.73
2022-12-26T02:16:30.787Z,11.21
2022-12-26T02:21:32.478Z,11.42
2022-12-26T02:26:49.080Z,11.26
2022-12-26T02:32:04.186Z,11.37
2022-12-26T02:37:24.659Z,11.18
2022-12-26T02:42:39.946Z,11.54
2022-12-26T02:48:03.374Z,11.31
2022-12-26T02:53:47.289Z,11.52
2022-12-26T02:59:12.877Z,11.51
2022-12-26T03:04:37.643Z,11.15
2022-12-26T03:09:59.775Z,11.13
2022-12-26T03:15:04.416Z,11.17
2022-12-26T03:20:15.587Z,11.11
2022-12-26T03:25:55.476Z,11.05
2022-12-26T03:31:01.413Z,10.97
2022-12-26T03:36:04.567Z,11.08
2022-12-26T03:41:45.008Z,11.20
2022-12-26T03:47:20.548Z,11.79
2022-12-26T03:52:47.420Z,11.98
2022-12-26T03:58:44.582Z,12.06
2022-12-26T04:04:06.882Z,12.04
2022-12-26T04:09:44.989Z,11.98
2022-12-26T04:15:10.000Z,11.99
2022-12-26T04:20:24.952Z,12.46
2022-12-26T04:25:48.226Z,12.45
2022-12-26T04:31:17.862Z,12.60
2022-12-26T04:36:51.650Z,12.49
2022-12-26T04:42:14.798Z,12.66
2022-12-26T04:47:17.165Z,12.70
2022-12-26T04:52:18.797Z,12.51
2022-12-26T04:57:20.714Z,12.56
2022-12-26T05:02:40.782Z,12.47
2022-12-26T05:08:01.188Z,12.56
2022-12-26T05:13:02.934Z,12.63
2022-12-26T05:18:23.190Z,12.53
2022-12-26T05:23:46.101Z,12.58
2022-12-26T05:28:55.078Z,12.50
2022-12-26T05:34:06.143Z,12.65
2022-12-26T05:39:09.349Z,12.58
2022-12-26T05:44:11.693Z,12.68
2022-12-26T05:49:13.349Z,12.49
2022-12-26T05:54:14.989Z,12.62
2022-12-26T05:59:16.691Z,12.57
2022-12-26T06:04:18.383Z,12.51
2022-12-26T06:09:19.967Z,12.38
2022-12-26T06:14:21.610Z,12.40
2022-12-26T06:19:23.244Z,12.45
2022-12-26T06:24:24.872Z,12.42
2022-12-26T06:29:26.508Z,12.37
2022-12-26T06:34:28.409Z,12.48
2022-12-26T06:39:30.081Z,12.45
2022-12-26T06:44:31.734Z,12.46
2022-12-26T06:49:33.540Z,12.44
2022-12-26T06:54:35.354Z,12.29
2022-12-26T06:59:37.176Z,12.47
2022-12-26T07:04:38.825Z,12.53
2022-12-26T07:09:40.513Z,12.59
2022-12-26T07:14:42.129Z,12.45
2022-12-26T07:19:43.863Z,12.19
2022-12-26T07:24:45.506Z,12.26
2022-12-26T07:29:47.467Z,12.27
2022-12-26T07:34:49.123Z,12.29
2022-12-26T07:39:55.318Z,12.34
2022-12-26T07:45:00.501Z,12.19
2022-12-26T07:50:02.469Z,12.09
2022-12-26T07:55:04.414Z,12.14
2022-12-26T08:00:06.691Z,12.23
2022-12-26T08:05:13.746Z,12.38
2022-12-26T08:10:17.074Z,12.35
2022-12-26T08:15:18.771Z,12.28
2022-12-26T08:20:20.434Z,12.43
2022-12-26T08:25:22.371Z,12.68
2022-12-26T08:30:24.051Z,12.75
2022-12-26T08:35:25.673Z,12.72
2022-12-26T08:40:42.629Z,12.74
2022-12-26T08:45:45.047Z,12.68
2022-12-26T08:50:46.703Z,12.79
2022-12-26T08:55:48.326Z,12.74
2022-12-26T09:00:55.085Z,12.74
2022-12-26T09:06:05.621Z,12.71
2022-12-26T09:11:12.184Z,12.80
2022-12-26T09:16:16.917Z,12.73
2022-12-26T09:21:18.633Z,12.86
2022-12-26T09:26:20.531Z,12.83
2022-12-26T09:31:27.779Z,13.26
2022-12-26T09:36:32.773Z,13.54
2022-12-26T09:41:47.258Z,13.48
2022-12-26T09:47:16.381Z,13.61
2022-12-26T09:52:22.426Z,13.45
2022-12-26T09:57:37.946Z,13.41
2022-12-26T10:02:39.717Z,13.28
2022-12-26T10:07:49.829Z,13.18
2022-12-26T10:13:06.297Z,13.06
2022-12-26T10:18:23.104Z,13.07
2022-12-26T10:23:30.495Z,12.72
2022-12-26T10:28:35.239Z,12.61
2022-12-26T10:34:06.363Z,12.62
2022-12-26T10:39:18.064Z,12.71
2022-12-26T10:44:25.683Z,12.77
2022-12-26T10:49:29.902Z,12.70
2022-12-26T10:54:32.265Z,12.77
2022-12-26T10:59:48.354Z,12.90
2022-12-26T11:05:15.945Z,12.84
2022-12-26T11:10:29.719Z,13.01
2022-12-26T11:15:34.081Z,13.17
2022-12-26T11:20:36.064Z,13.16
2022-12-26T11:25:52.023Z,13.14
2022-12-26T11:30:54.586Z,13.34
2022-12-26T11:36:02.006Z,13.56
2022-12-26T11:41:35.901Z,13.50
2022-12-26T11:46:55.699Z,13.33
2022-12-26T11:52:00.333Z,13.23
2022-12-26T11:57:09.192Z,13.06
2022-12-26T12:02:27.163Z,13.06
2022-12-26T12:07:53.802Z,12.97
2022-12-26T12:13:21.682Z,12.79
2022-12-26T12:18:29.504Z,12.75
2022-12-26T12:23:59.454Z,12.69
2022-12-26T12:29:52.415Z,12.64
2022-12-26T12:35:31.468Z,12.60
2022-12-26T12:41:05.652Z,12.53
2022-12-26T12:46:26.414Z,12.60
2022-12-26T12:51:45.592Z,12.54
2022-12-26T12:57:19.341Z,12.49
2022-12-26T13:02:27.377Z,12.31
2022-12-26T13:07:38.504Z,11.92
2022-12-26T13:12:45.738Z,10.49
2022-12-26T13:18:13.281Z,9.81
2022-12-26T13:23:59.618Z,9.60
2022-12-26T13:29:32.555Z,9.54
2022-12-26T13:34:34.560Z,9.66
2022-12-26T13:39:37.945Z,9.75
2022-12-26T13:44:39.909Z,9.79
2022-12-26T13:49:42.063Z,9.90
2022-12-26T13:54:46.911Z,9.86
2022-12-26T14:00:06.770Z,9.88
2022-12-26T14:05:23.981Z,9.94
2022-12-26T14:10:43.419Z,9.84
2022-12-26T14:15:57.833Z,9.93
2022-12-26T14:21:37.399Z,9.83
2022-12-26T14:27:08.568Z,9.82
2022-12-26T14:32:28.025Z,9.93
2022-12-26T14:37:42.367Z,9.98
2022-12-26T14:43:11.402Z,10.00
2022-12-26T14:48:16.233Z,9.96
2022-12-26T14:53:27.530Z,9.88
2022-12-26T14:58:32.386Z,9.84
2022-12-26T15:03:58.759Z,10.05
2022-12-26T15:09:09.332Z,10.02
2022-12-26T15:14:31.755Z,9.91
2022-12-26T15:19:36.135Z,9.76
2022-12-26T15:30:31.064Z,9.71
2022-12-26T15:35:40.329Z,9.52
2022-12-26T15:41:11.711Z,9.55
2022-12-26T15:46:27.637Z,9.59
2022-12-26T15:51:41.635Z,9.69
2022-12-26T15:57:01.427Z,9.35
2022-12-26T16:02:10.089Z,9.29
2022-12-26T16:07:44.071Z,9.12
2022-12-26T16:13:22.955Z,9.33
2022-12-26T16:18:30.991Z,9.34
2022-12-26T16:23:37.808Z,9.08
2022-12-26T16:28:41.567Z,8.97
2022-12-26T16:33:44.050Z,9.00
2022-12-26T16:38:45.947Z,8.82
2022-12-26T16:43:49.385Z,8.69
2022-12-26T16:48:57.137Z,8.58
2022-12-26T16:54:20.203Z,8.51
2022-12-26T16:59:25.174Z,8.57
2022-12-26T17:04:28.976Z,8.61
2022-12-26T17:09:39.125Z,8.65
2022-12-26T17:14:46.060Z,8.68
2022-12-26T17:19:53.722Z,8.81
2022-12-26T17:25:29.461Z,9.06
2022-12-26T17:30:32.551Z,9.35
2022-12-26T17:36:21.365Z,9.57
2022-12-26T17:41:01.037Z,9.68
2022-12-26T17:46:04.182Z,9.83
2022-12-26T17:51:08.123Z,9.98
2022-12-26T17:56:22.716Z,10.01
2022-12-26T18:01:24.482Z,10.04
2022-12-26T18:06:26.591Z,10.05
2022-12-26T18:11:28.338Z,10.19
2022-12-26T18:16:30.031Z,10.32
2022-12-26T18:21:31.739Z,10.25
2022-12-26T18:26:33.391Z,10.21
2022-12-26T18:31:35.250Z,10.36
2022-12-26T18:36:38.675Z,10.38
2022-12-26T18:41:40.488Z,10.20
2022-12-26T18:46:42.166Z,10.13
2022-12-26T18:51:43.956Z,10.13
2022-12-26T18:56:45.876Z,9.89
2022-12-26T19:01:47.637Z,9.84
2022-12-26T19:06:49.637Z,9.60
2022-12-26T19:11:51.377Z,9.56
2022-12-26T19:16:53.052Z,9.39
2022-12-26T19:21:54.718Z,9.33
2022-12-26T19:26:56.413Z,9.32
2022-12-26T19:31:58.099Z,9.25
2022-12-26T19:36:59.772Z,9.24
2022-12-26T19:42:01.428Z,9.27
2022-12-26T19:47:11.767Z,9.10
2022-12-26T19:52:14.627Z,9.10
2022-12-26T19:57:16.323Z,9.21
2022-12-26T20:02:18.431Z,9.17
2022-12-26T20:07:20.296Z,9.26
2022-12-26T20:12:22.098Z,9.20
2022-12-26T20:17:23.830Z,9.05
2022-12-26T20:22:25.569Z,8.89
2022-12-26T20:27:27.658Z,8.38
2022-12-26T20:32:29.292Z,8.04
2022-12-26T20:37:32.201Z,7.87
2022-12-26T20:42:33.865Z,7.77
2022-12-26T20:47:35.575Z,7.73
2022-12-26T20:52:37.277Z,7.46
2022-12-26T20:57:38.911Z,7.48
2022-12-26T21:02:40.857Z,7.42
2022-12-26T21:07:43.083Z,7.47
2022-12-26T21:12:45.589Z,7.62
2022-12-26T21:17:47.541Z,7.34
2022-12-26T21:22:49.391Z,7.14
2022-12-26T21:27:54.901Z,7.13
2022-12-26T21:33:02.140Z,6.98
2022-12-26T21:38:03.917Z,6.83
2022-12-26T21:43:05.609Z,6.69
2022-12-26T21:48:07.991Z,6.47
2022-12-26T21:53:10.011Z,6.33
2022-12-26T21:58:11.717Z,6.30
2022-12-26T22:03:31.768Z,6.07
2022-12-26T22:08:33.990Z,6.26
2022-12-26T22:13:44.495Z,6.03
2022-12-26T22:18:47.517Z,5.85
2022-12-26T22:23:51.563Z,5.61
2022-12-26T22:28:53.742Z,5.21
2022-12-26T22:33:58.110Z,5.06
2022-12-26T22:39:00.250Z,5.02
2022-12-26T22:44:02.500Z,4.95
2022-12-26T22:49:04.578Z,4.89
2022-12-26T22:54:06.548Z,4.97
2022-12-26T22:59:11.249Z,5.00
2022-12-26T23:04:13.500Z,5.02
2022-12-26T23:09:17.336Z,4.98
2022-12-26T23:14:19.227Z,4.96
2022-12-26T23:20:08.921Z,4.86
2022-12-26T23:25:11.829Z,4.66
2022-12-26T23:30:20.103Z,4.41
2022-12-26T23:35:22.845Z,4.34
2022-12-26T23:40:24.657Z,4.26
2022-12-26T23:45:26.382Z,4.18
2022-12-26T23:50:28.107Z,4.32
2022-12-26T23:55:32.952Z,4.34
